Fairmount Heights, Maryland
Current Conditions -  °F | °C
As of 9:58 AM on Monday 24 Nov 2014 (Local Time) from KADW Reporting Station
Overcast Overcast  
Wind Chill: 66°   Ceiling: 2600
Heat Index: 66°   Visibility: 10mi
Dew Point: 57°   Wind: 18mph
Humidity: 72%   Direction: 210°SSW
Pressure: 29.7"   Gusts: 32mph
Location:  38.8854°N, 76.8965°W
Report Text: KADW 241458Z AUTO 21016G28KT 10SM OVC026 19/14 A2970 RMK AO2 PK WND 19030/49 SLP064 T01900139 21028 52007 $
Loading
Personal Weather Stations






























Interactive Weather Map New forecast layout! Learn more

10-Day Weather Forecast

Advertisements
Track Severe Weather on mobile